Time;durP1;ratioP1;P1;durP2;ratioP2;P2;SDS_P1;SDS_P2;PMS_P1;PMS_P2;Temp;Humidity;BMP_temperature;BMP_pressure;BME280_temperature;BME280_humidity;BME280_pressure;Samples;Min_cycle;Max_cycle;Signal;HPM_P1;HPM_P2
2021/07/10 00:00:12;;;;;;;9.85;8.75;;;;;;;16.29;nan;100926.72;5044591;28;20030;-89
2021/07/10 00:02:38;;;;;;;11.80;9.07;;;;;;;16.25;nan;100919.25;5051805;28;20552;-88
2021/07/10 00:05:06;;;;;;;9.30;8.30;;;;;;;16.16;nan;100921.19;5052415;28;20038;-89
2021/07/10 00:07:32;;;;;;;9.40;7.70;;;;;;;16.14;nan;100921.34;5055342;28;20033;-89
2021/07/10 00:09:59;;;;;;;10.15;8.45;;;;;;;16.14;nan;100915.19;5055155;28;20054;-89
2021/07/10 00:12:24;;;;;;;12.52;9.63;;;;;;;16.11;nan;100918.19;5056416;28;20039;-88
2021/07/10 00:14:50;;;;;;;11.77;9.38;;;;;;;16.14;nan;100917.84;5054938;28;20124;-90
2021/07/10 00:17:15;;;;;;;10.05;8.80;;;;;;;16.11;nan;100920.84;5055992;28;20511;-90
2021/07/10 00:19:47;;;;;;;10.32;8.98;;;;;;;16.07;nan;100914.25;5056414;28;20033;-89
2021/07/10 00:22:13;;;;;;;9.65;8.55;;;;;;;16.01;nan;100910.44;5055478;28;20120;-90
2021/07/10 00:24:38;;;;;;;11.13;8.70;;;;;;;16.01;nan;100910.44;5047859;28;20132;-89
2021/07/10 00:27:03;;;;;;;10.45;9.35;;;;;;;16.00;nan;100905.28;5054635;28;20029;-89
2021/07/10 00:29:29;;;;;;;9.27;8.23;;;;;;;15.94;nan;100906.81;5054667;28;20029;-89
2021/07/10 00:31:54;;;;;;;10.88;8.73;;;;;;;15.92;nan;100904.34;5054944;28;20044;-89
2021/07/10 00:34:19;;;;;;;8.88;7.13;;;;;;;15.86;nan;100898.88;5053307;28;20029;-90
2021/07/10 00:36:45;;;;;;;8.18;7.32;;;;;;;15.82;nan;100893.06;5054210;28;20044;-89
2021/07/10 00:39:10;;;;;;;11.60;8.80;;;;;;;15.87;nan;100889.88;5055696;28;20500;-89
2021/07/10 00:41:35;;;;;;;9.98;8.48;;;;;;;15.85;nan;100887.41;5054114;28;20495;-89
2021/07/10 00:44:01;;;;;;;9.95;8.52;;;;;;;15.82;nan;100879.72;5071212;28;20030;-89
2021/07/10 00:46:27;;;;;;;11.60;9.68;;;;;;;15.85;nan;100874.06;5070671;28;20033;-89
2021/07/10 00:48:53;;;;;;;11.77;9.68;;;;;;;15.78;nan;100870.44;5054627;28;20041;-90
2021/07/10 00:51:19;;;;;;;11.07;9.13;;;;;;;15.74;nan;100874.47;5055788;28;20048;-89
2021/07/10 00:53:47;;;;;;;11.60;9.70;;;;;;;15.75;nan;100870.78;5054437;28;20037;-89
2021/07/10 00:56:13;;;;;;;11.02;9.65;;;;;;;15.73;nan;100878.16;5070201;28;20033;-88
2021/07/10 00:58:39;;;;;;;11.40;9.20;;;;;;;15.68;nan;100877.78;5054294;28;20116;-90
2021/07/10 01:01:04;;;;;;;11.98;10.38;;;;;;;15.70;nan;100875.81;5054503;28;20123;-89
2021/07/10 01:03:34;;;;;;;9.27;8.30;;;;;;;15.60;nan;100886.69;5054034;28;20037;-87
2021/07/10 01:06:01;;;;;;;10.60;9.48;;;;;;;15.62;nan;100882.00;5070531;28;20061;-87
2021/07/10 01:08:27;;;;;;;9.93;8.27;;;;;;;15.59;nan;100884.19;5055130;28;20040;-87
2021/07/10 01:10:53;;;;;;;9.43;8.43;;;;;;;15.51;nan;100885.88;5053273;28;20037;-87
2021/07/10 01:13:20;;;;;;;12.68;9.00;;;;;;;15.55;nan;100885.56;5052025;28;20033;-87
2021/07/10 01:15:45;;;;;;;12.15;9.30;;;;;;;15.51;nan;100880.56;5053772;28;20035;-86
2021/07/10 01:18:11;;;;;;;11.32;10.05;;;;;;;15.53;nan;100882.22;5053513;28;20037;-87
2021/07/10 01:20:46;;;;;;;10.18;8.30;;;;;;;15.46;nan;100882.09;5053597;28;20036;-87
2021/07/10 01:23:12;;;;;;;9.63;7.90;;;;;;;15.40;nan;100880.16;5053562;28;20071;-88
2021/07/10 01:25:38;;;;;;;9.68;8.40;;;;;;;15.43;nan;100877.94;5053658;28;20052;-87
2021/07/10 01:28:03;;;;;;;10.93;8.60;;;;;;;15.46;nan;100876.75;5053039;28;20040;-87
2021/07/10 01:30:29;;;;;;;9.30;8.38;;;;;;;15.38;nan;100877.66;5069955;28;20494;-87
2021/07/10 01:32:55;;;;;;;11.85;9.07;;;;;;;15.43;nan;100871.78;5055302;28;20033;-87
2021/07/10 01:35:21;;;;;;;11.00;8.25;;;;;;;15.37;nan;100864.50;5053466;28;20025;-87
2021/07/10 01:37:46;;;;;;;9.15;7.82;;;;;;;15.32;nan;100859.69;5053874;28;20029;-87
2021/07/10 01:40:15;;;;;;;9.40;7.95;;;;;;;15.31;nan;100850.03;5054662;28;20029;-88
2021/07/10 01:42:41;;;;;;;9.13;8.07;;;;;;;15.27;nan;100846.06;5053178;28;20032;-87
2021/07/10 01:45:07;;;;;;;11.57;8.80;;;;;;;15.30;nan;100843.03;5054275;28;20029;-87
2021/07/10 01:47:32;;;;;;;11.57;9.48;;;;;;;15.31;nan;100847.38;5054428;28;20051;-87
2021/07/10 01:49:58;;;;;;;12.18;9.77;;;;;;;15.33;nan;100844.53;5053674;28;20032;-87
2021/07/10 01:52:23;;;;;;;13.23;9.48;;;;;;;15.30;nan;100837.69;5052681;28;20037;-88
2021/07/10 01:54:48;;;;;;;11.50;9.13;;;;;;;15.31;nan;100835.91;5053062;28;20112;-87
2021/07/10 01:57:14;;;;;;;12.80;9.57;;;;;;;15.29;nan;100833.41;5053438;28;20041;-88
2021/07/10 01:59:39;;;;;;;11.85;10.10;;;;;;;15.29;nan;100830.72;5053144;28;20515;-88
2021/07/10 02:02:05;;;;;;;11.60;9.65;;;;;;;15.31;nan;100831.38;5042957;28;20032;-88
2021/07/10 02:04:32;;;;;;;12.50;10.45;;;;;;;15.30;nan;100835.03;5069872;28;20394;-87
2021/07/10 02:06:59;;;;;;;11.05;9.55;;;;;;;15.34;nan;100836.34;5070424;28;20021;-87
2021/07/10 02:09:28;;;;;;;13.02;10.43;;;;;;;15.31;nan;100839.38;5069354;28;20024;-86
2021/07/10 02:11:53;;;;;;;12.73;10.13;;;;;;;15.31;nan;100834.06;5040299;28;20603;-87
2021/07/10 02:14:19;;;;;;;11.63;9.88;;;;;;;15.23;nan;100829.59;5035177;28;20036;-87
2021/07/10 02:16:47;;;;;;;10.40;9.25;;;;;;;15.24;nan;100823.25;5051977;28;20495;-86
2021/07/10 02:19:12;;;;;;;11.57;9.05;;;;;;;15.23;nan;100820.75;5042250;28;20043;-87
2021/07/10 02:21:38;;;;;;;9.02;8.05;;;;;;;15.10;nan;100817.84;5052506;28;20103;-88
2021/07/10 02:24:08;;;;;;;10.65;9.07;;;;;;;15.14;nan;100814.66;5051726;28;20039;-88
2021/07/10 02:26:34;;;;;;;11.40;9.68;;;;;;;15.13;nan;100810.31;5066358;28;20488;-86
2021/07/10 02:29:00;;;;;;;11.15;9.57;;;;;;;15.13;nan;100817.50;5051946;28;20035;-87
2021/07/10 02:31:26;;;;;;;10.93;8.35;;;;;;;15.09;nan;100819.69;5051638;28;20032;-87
2021/07/10 02:33:51;;;;;;;12.70;10.40;;;;;;;15.14;nan;100804.00;5068184;28;20123;-87
2021/07/10 02:36:17;;;;;;;12.65;10.48;;;;;;;15.15;nan;100815.50;5052217;28;20045;-87
2021/07/10 02:38:43;;;;;;;11.05;8.68;;;;;;;15.04;nan;100812.22;5050232;28;20037;-86
2021/07/10 02:41:10;;;;;;;10.43;8.75;;;;;;;15.05;nan;100821.84;5051954;28;20108;-89
2021/07/10 02:43:36;;;;;;;13.02;9.88;;;;;;;15.05;nan;100815.72;5052667;28;20040;-89
2021/07/10 02:46:01;;;;;;;10.63;9.50;;;;;;;15.02;nan;100810.75;5067235;28;20040;-88
2021/07/10 02:48:26;;;;;;;11.05;9.90;;;;;;;15.04;nan;100809.56;5051157;28;20049;-89
2021/07/10 02:50:51;;;;;;;12.63;10.02;;;;;;;15.01;nan;100807.22;5051398;28;20043;-89
2021/07/10 02:53:17;;;;;;;10.30;8.80;;;;;;;14.97;nan;100805.94;5050491;28;20071;-89
2021/07/10 02:55:42;;;;;;;12.27;9.70;;;;;;;14.99;nan;100798.59;5052558;28;20040;-89
2021/07/10 02:58:07;;;;;;;10.65;9.02;;;;;;;14.96;nan;100801.59;5071857;28;20030;-89
2021/07/10 03:00:33;;;;;;;11.73;9.82;;;;;;;14.98;nan;100791.59;5059624;28;20037;-88
2021/07/10 03:02:59;;;;;;;11.73;9.23;;;;;;;14.93;nan;100788.63;5051271;28;20072;-88
2021/07/10 03:05:27;;;;;;;11.68;9.52;;;;;;;14.93;nan;100790.47;5051058;28;20033;-89
2021/07/10 03:07:53;;;;;;;12.43;10.20;;;;;;;14.97;nan;100786.44;5050841;28;20040;-89
2021/07/10 03:10:20;;;;;;;12.77;10.18;;;;;;;14.99;nan;100789.75;5052046;28;20132;-89
2021/07/10 03:12:46;;;;;;;12.13;9.40;;;;;;;14.94;nan;100787.63;5069545;28;20415;-88
2021/07/10 03:15:15;;;;;;;12.10;9.88;;;;;;;14.87;nan;100789.31;5070174;28;20036;-89
2021/07/10 03:17:40;;;;;;;12.05;9.57;;;;;;;14.82;nan;100783.69;5051466;28;20133;-89
2021/07/10 03:20:06;;;;;;;13.93;10.55;;;;;;;14.93;nan;100783.31;5050941;28;20395;-88
2021/07/10 03:22:32;;;;;;;10.55;8.68;;;;;;;14.88;nan;100783.00;5051225;28;20029;-88
2021/07/10 03:24:57;;;;;;;12.93;9.80;;;;;;;14.88;nan;100784.84;5050499;28;20041;-88
2021/07/10 03:27:22;;;;;;;11.52;9.07;;;;;;;14.88;nan;100776.84;5051075;28;20867;-87
2021/07/10 03:29:47;;;;;;;10.68;8.65;;;;;;;14.86;nan;100782.34;5050969;28;20033;-89
2021/07/10 03:32:13;;;;;;;11.50;9.98;;;;;;;14.84;nan;100779.84;5067544;28;20078;-88
2021/07/10 03:34:38;;;;;;;13.15;10.13;;;;;;;14.86;nan;100777.84;5052410;28;20032;-89
2021/07/10 03:37:04;;;;;;;9.45;8.48;;;;;;;14.78;nan;100782.38;5051068;28;20068;-90
2021/07/10 03:39:29;;;;;;;9.40;8.45;;;;;;;14.74;nan;100781.91;5052161;28;20033;-88
2021/07/10 03:41:54;;;;;;;9.27;7.68;;;;;;;14.79;nan;100784.84;5050880;28;20045;-88
2021/07/10 03:44:19;;;;;;;11.50;9.23;;;;;;;14.83;nan;100782.69;5030435;28;20057;-89
2021/07/10 03:46:46;;;;;;;11.45;9.20;;;;;;;14.86;nan;100783.16;5045269;28;20118;-89
2021/07/10 03:49:11;;;;;;;11.68;9.43;;;;;;;14.89;nan;100783.81;5072567;28;20035;-88
2021/07/10 03:51:37;;;;;;;10.65;8.35;;;;;;;14.91;nan;100787.97;5087894;28;20496;-89
2021/07/10 03:54:02;;;;;;;10.27;7.93;;;;;;;14.89;nan;100778.50;5087652;28;20109;-88
2021/07/10 03:56:42;;;;;;;11.82;8.73;;;;;;;14.94;nan;100776.97;5086900;28;20086;-89
2021/07/10 03:59:07;;;;;;;10.25;8.38;;;;;;;14.95;nan;100781.31;5056317;28;20033;-89
2021/07/10 04:01:35;;;;;;;10.75;8.85;;;;;;;14.97;nan;100781.09;5050999;28;20037;-89
2021/07/10 04:04:01;;;;;;;9.25;8.10;;;;;;;14.96;nan;100777.63;5052079;28;20029;-89
2021/07/10 04:06:27;;;;;;;10.25;8.60;;;;;;;14.98;nan;100774.78;5056650;28;20040;-89
2021/07/10 04:08:52;;;;;;;10.02;8.40;;;;;;;14.99;nan;100781.78;5053650;28;20033;-88
2021/07/10 04:11:18;;;;;;;9.35;8.35;;;;;;;15.03;nan;100773.25;5055545;28;20044;-88
2021/07/10 04:13:43;;;;;;;8.20;7.10;;;;;;;15.02;nan;100774.28;5063525;28;20029;-89
2021/07/10 04:16:09;;;;;;;11.25;8.80;;;;;;;15.06;nan;100772.94;5091590;28;20399;-89
2021/07/10 04:18:36;;;;;;;8.55;7.47;;;;;;;15.05;nan;100771.25;5090046;28;20052;-89
2021/07/10 04:21:02;;;;;;;10.75;7.70;;;;;;;15.12;nan;100773.22;5056179;28;20075;-88
2021/07/10 04:23:27;;;;;;;8.77;7.53;;;;;;;15.11;nan;100771.56;5061592;28;20504;-89
2021/07/10 04:25:53;;;;;;;8.35;7.30;;;;;;;15.20;nan;100770.50;5054525;28;20120;-89
2021/07/10 04:28:18;;;;;;;8.88;7.65;;;;;;;15.15;nan;100771.03;5055752;28;20033;-89
2021/07/10 04:30:44;;;;;;;9.50;7.57;;;;;;;15.23;nan;100772.81;5054492;28;20033;-89
2021/07/10 04:33:10;;;;;;;8.93;7.38;;;;;;;15.26;nan;100778.63;5071369;28;20025;-89
2021/07/10 04:35:35;;;;;;;10.18;7.15;;;;;;;15.25;nan;100765.47;5053959;28;20063;-88
2021/07/10 04:38:01;;;;;;;9.18;6.82;;;;;;;15.27;nan;100769.63;5054605;28;20033;-89
2021/07/10 04:40:26;;;;;;;8.65;6.80;;;;;;;15.24;nan;100764.66;5061541;28;20041;-89
2021/07/10 04:42:52;;;;;;;7.03;6.10;;;;;;;15.24;nan;100769.97;5054362;28;20117;-90
2021/07/10 04:45:17;;;;;;;7.05;6.13;;;;;;;15.31;nan;100774.63;5054497;28;20102;-88
2021/07/10 04:47:43;;;;;;;7.20;5.50;;;;;;;15.31;nan;100770.09;5062691;28;20100;-88
2021/07/10 04:50:11;;;;;;;7.10;6.38;;;;;;;15.34;nan;100772.41;5075090;28;20082;-89
2021/07/10 04:52:37;;;;;;;7.22;6.45;;;;;;;15.37;nan;100771.22;5090949;28;20039;-89
2021/07/10 04:55:04;;;;;;;6.60;5.90;;;;;;;15.34;nan;100777.75;5081266;28;20033;-89
2021/07/10 04:57:29;;;;;;;5.97;5.25;;;;;;;15.35;nan;100790.06;5055172;28;20407;-89
2021/07/10 04:59:55;;;;;;;4.93;4.43;;;;;;;15.38;nan;100788.88;5054378;28;20159;-88
2021/07/10 05:02:21;;;;;;;5.60;5.10;;;;;;;15.49;nan;100785.78;5054149;28;20511;-89
2021/07/10 05:04:47;;;;;;;6.50;5.07;;;;;;;15.60;nan;100792.56;5054263;28;20128;-88
2021/07/10 05:07:12;;;;;;;4.93;4.43;;;;;;;15.65;nan;100783.00;5054234;28;20114;-89
2021/07/10 05:09:38;;;;;;;6.30;5.50;;;;;;;15.67;nan;100790.84;5053803;28;20029;-89
2021/07/10 05:12:03;;;;;;;6.45;5.85;;;;;;;15.65;nan;100777.69;5053737;28;20041;-89
2021/07/10 05:14:29;;;;;;;5.60;4.70;;;;;;;15.73;nan;100786.66;5054247;28;20110;-89
2021/07/10 05:16:54;;;;;;;5.38;4.50;;;;;;;15.81;nan;100792.75;5054491;28;20583;-89
2021/07/10 05:19:20;;;;;;;6.95;6.07;;;;;;;15.91;nan;100788.00;5054749;28;20412;-89
2021/07/10 05:21:45;;;;;;;9.93;7.32;;;;;;;16.08;nan;100786.00;5053793;28;20090;-89
2021/07/10 05:24:10;;;;;;;9.07;8.10;;;;;;;16.17;nan;100784.09;5070129;28;20039;-90
2021/07/10 05:26:36;;;;;;;12.60;8.98;;;;;;;16.18;nan;100783.06;5053933;28;20035;-89
2021/07/10 05:29:04;;;;;;;9.60;8.13;;;;;;;16.28;nan;100785.47;5054224;28;20116;-89
2021/07/10 05:31:29;;;;;;;8.75;6.80;;;;;;;16.30;nan;100778.97;5054219;28;20401;-90
2021/07/10 05:33:55;;;;;;;6.40;5.78;;;;;;;16.40;nan;100783.19;5067089;28;20044;-89
2021/07/10 05:36:20;;;;;;;6.20;5.45;;;;;;;16.49;nan;100779.41;5054406;28;20500;-89
2021/07/10 05:38:45;;;;;;;9.90;8.68;;;;;;;16.47;nan;100776.09;5048370;28;20037;-90
2021/07/10 05:41:11;;;;;;;9.70;8.25;;;;;;;16.44;nan;100785.28;5053696;28;20397;-90
2021/07/10 05:43:36;;;;;;;11.27;7.70;;;;;;;16.47;nan;100776.09;5060703;28;20082;-89
2021/07/10 05:46:01;;;;;;;10.52;7.50;;;;;;;16.51;nan;100775.53;5063155;28;20037;-90
2021/07/10 05:48:27;;;;;;;6.82;6.00;;;;;;;16.66;nan;100767.53;5069008;28;20033;-90
2021/07/10 05:50:53;;;;;;;10.30;8.02;;;;;;;16.83;nan;100772.69;5064902;28;20530;-90
2021/07/10 05:53:18;;;;;;;7.80;6.25;;;;;;;17.04;nan;100780.78;5054364;28;20166;-89
2021/07/10 05:55:43;;;;;;;7.03;5.88;;;;;;;17.46;nan;100775.66;5053172;28;20053;-89
2021/07/10 05:58:09;;;;;;;8.45;6.82;;;;;;;18.01;nan;100784.78;5052936;28;20036;-89
2021/07/10 06:00:34;;;;;;;11.82;8.82;;;;;;;18.46;nan;100783.44;5054467;28;20029;-88
2021/07/10 06:03:00;;;;;;;14.10;10.93;;;;;;;18.82;nan;100782.41;5054180;28;20028;-87
2021/07/10 06:05:25;;;;;;;13.57;9.43;;;;;;;19.06;nan;100788.28;5052810;28;20083;-87
2021/07/10 06:07:52;;;;;;;14.75;9.40;;;;;;;19.19;nan;100791.00;5053112;28;20045;-87
2021/07/10 06:10:18;;;;;;;9.65;8.48;;;;;;;19.64;nan;100788.63;5053762;28;20033;-87
2021/07/10 06:12:46;;;;;;;10.65;8.30;;;;;;;19.85;nan;100781.44;5054907;28;20083;-87
2021/07/10 06:15:12;;;;;;;10.25;8.68;;;;;;;20.20;nan;100787.38;5061930;28;20091;-88
2021/07/10 06:17:40;;;;;;;10.35;7.53;;;;;;;20.34;nan;100788.19;5069331;28;20033;-87
2021/07/10 06:20:07;;;;;;;8.40;6.83;;;;;;;20.58;nan;100789.41;5052583;28;20036;-87
2021/07/10 06:22:33;;;;;;;8.63;6.10;;;;;;;20.63;nan;100784.22;5054065;28;20064;-87
2021/07/10 06:24:58;;;;;;;7.35;5.95;;;;;;;20.71;nan;100784.00;5051465;28;20053;-87
2021/07/10 06:27:24;;;;;;;8.52;7.07;;;;;;;20.75;nan;100773.63;5054253;28;20037;-87
2021/07/10 06:29:49;;;;;;;6.82;5.55;;;;;;;20.94;nan;100779.97;5052675;28;20055;-87
2021/07/10 06:32:15;;;;;;;7.20;5.97;;;;;;;21.24;nan;100780.22;5052756;28;20060;-87
2021/07/10 06:34:40;;;;;;;6.22;4.80;;;;;;;21.65;nan;100781.63;5074160;28;20059;-87
2021/07/10 06:37:06;;;;;;;6.13;4.80;;;;;;;22.12;nan;100779.38;5060549;28;20045;-87
2021/07/10 06:39:32;;;;;;;9.45;7.05;;;;;;;22.48;nan;100781.31;5062877;28;20083;-88
2021/07/10 06:41:57;;;;;;;8.90;5.68;;;;;;;22.59;nan;100778.91;5054587;28;20041;-87
2021/07/10 06:44:23;;;;;;;7.70;5.75;;;;;;;22.60;nan;100784.09;5052648;28;20064;-87
2021/07/10 06:46:48;;;;;;;6.90;4.97;;;;;;;22.68;nan;100777.56;5055252;28;20086;-87
2021/07/10 06:49:13;;;;;;;6.28;4.63;;;;;;;22.78;nan;100777.84;5073298;28;20124;-87
2021/07/10 06:51:40;;;;;;;6.20;4.65;;;;;;;23.09;nan;100773.31;5052984;28;20029;-87
2021/07/10 06:54:05;;;;;;;6.45;5.20;;;;;;;23.44;nan;100784.25;5053625;28;20036;-88
2021/07/10 06:56:31;;;;;;;7.30;5.60;;;;;;;23.67;nan;100767.28;5053355;28;20037;-88
2021/07/10 06:58:56;;;;;;;8.02;5.95;;;;;;;23.96;nan;100772.84;5052997;28;20044;-88
2021/07/10 07:01:23;;;;;;;8.68;7.25;;;;;;;23.94;nan;100764.97;5053855;28;20029;-87
2021/07/10 07:03:48;;;;;;;8.77;5.82;;;;;;;23.69;nan;100773.28;5053560;28;20029;-86
2021/07/10 07:06:13;;;;;;;6.35;5.30;;;;;;;23.69;nan;100767.03;5051874;28;20395;-87
2021/07/10 07:08:39;;;;;;;4.88;4.38;;;;;;;23.83;nan;100760.38;5052183;28;20044;-87
2021/07/10 07:11:04;;;;;;;7.57;5.72;;;;;;;24.21;nan;100756.38;5053331;28;20041;-88
2021/07/10 07:13:29;;;;;;;5.05;4.30;;;;;;;24.16;nan;100757.09;5049901;28;20033;-88
2021/07/10 07:15:55;;;;;;;6.03;3.90;;;;;;;24.35;nan;100756.97;5057093;28;20037;-89
2021/07/10 07:18:20;;;;;;;6.55;4.85;;;;;;;24.80;nan;100767.09;5050244;28;20060;-88
2021/07/10 07:20:45;;;;;;;6.05;4.75;;;;;;;24.93;nan;100757.88;5049990;28;20045;-88
2021/07/10 07:23:11;;;;;;;5.47;4.30;;;;;;;25.21;nan;100752.47;5050177;28;20029;-88
2021/07/10 07:25:38;;;;;;;5.15;4.30;;;;;;;25.59;nan;100750.97;5049422;28;20051;-88
2021/07/10 07:28:04;;;;;;;4.85;4.10;;;;;;;25.60;nan;100747.22;5049688;28;20033;-88
2021/07/10 07:30:30;;;;;;;6.18;4.55;;;;;;;25.77;nan;100744.50;5050904;28;20083;-88
2021/07/10 07:32:55;;;;;;;4.00;2.88;;;;;;;26.03;nan;100747.63;5058536;28;20029;-88
2021/07/10 07:35:21;;;;;;;4.85;3.60;;;;;;;26.64;nan;100748.41;5087494;28;20043;-88
2021/07/10 07:37:46;;;;;;;4.25;3.22;;;;;;;26.78;nan;100748.84;5087913;28;20387;-88
2021/07/10 07:40:14;;;;;;;3.80;3.00;;;;;;;26.90;nan;100751.44;5071634;28;20029;-88
2021/07/10 07:42:40;;;;;;;4.00;3.45;;;;;;;26.92;nan;100743.84;5072638;28;20440;-88
2021/07/10 07:45:07;;;;;;;3.88;2.72;;;;;;;26.98;nan;100737.41;5091661;28;20127;-88
2021/07/10 07:47:33;;;;;;;5.05;4.30;;;;;;;27.14;nan;100740.28;5075833;28;20528;-87
2021/07/10 07:49:59;;;;;;;5.85;3.83;;;;;;;26.99;nan;100732.81;5074659;28;20037;-88
2021/07/10 07:52:25;;;;;;;5.78;4.03;;;;;;;27.02;nan;100735.00;5090699;28;20032;-87
2021/07/10 07:54:50;;;;;;;6.28;4.50;;;;;;;27.08;nan;100729.38;5091465;28;20056;-87
2021/07/10 07:57:15;;;;;;;7.90;4.53;;;;;;;27.08;nan;100732.09;5076554;28;20543;-87
2021/07/10 07:59:40;;;;;;;4.90;3.95;;;;;;;26.98;nan;100726.56;5090765;28;20055;-88
2021/07/10 08:02:07;;;;;;;4.63;3.75;;;;;;;26.73;nan;100724.38;5073939;28;20051;-88
2021/07/10 08:04:32;;;;;;;4.10;3.10;;;;;;;26.84;nan;100720.72;5091289;28;20039;-87
2021/07/10 08:06:58;;;;;;;7.07;5.20;;;;;;;27.53;nan;100722.72;5091305;28;20033;-88
2021/07/10 08:09:24;;;;;;;6.72;3.90;;;;;;;26.52;nan;100722.47;5074874;28;20028;-87
2021/07/10 08:11:49;;;;;;;3.95;3.05;;;;;;;26.98;nan;100717.56;5091450;28;20120;-88
2021/07/10 08:14:14;;;;;;;5.18;3.80;;;;;;;27.40;nan;100716.91;5060820;28;20543;-87
2021/07/10 08:16:40;;;;;;;4.70;3.65;;;;;;;27.56;nan;100718.66;5053576;28;20036;-87
2021/07/10 08:19:05;;;;;;;5.65;3.40;;;;;;;27.85;nan;100713.72;5055549;28;20040;-87
2021/07/10 08:21:33;;;;;;;4.45;3.40;;;;;;;28.11;nan;100711.97;5053762;28;20037;-88
2021/07/10 08:23:59;;;;;;;5.40;3.72;;;;;;;28.45;nan;100706.13;5055316;28;20520;-87
2021/07/10 08:26:25;;;;;;;3.95;3.00;;;;;;;28.90;nan;100704.66;5053185;28;20067;-88
2021/07/10 08:28:50;;;;;;;3.95;2.40;;;;;;;29.13;nan;100697.09;5054237;28;20032;-87
2021/07/10 08:31:16;;;;;;;4.60;3.20;;;;;;;29.52;nan;100701.97;5070962;28;20033;-89
2021/07/10 08:33:42;;;;;;;4.75;3.65;;;;;;;29.06;nan;100696.50;5066650;28;20040;-89
2021/07/10 08:36:08;;;;;;;6.60;3.03;;;;;;;28.95;nan;100696.47;5073065;28;20523;-88
2021/07/10 08:38:34;;;;;;;3.58;2.58;;;;;;;29.04;nan;100691.34;5090698;28;20040;-88
2021/07/10 08:41:00;;;;;;;3.33;2.92;;;;;;;28.81;nan;100692.66;5075441;28;20040;-88
2021/07/10 08:43:25;;;;;;;4.22;3.13;;;;;;;28.96;nan;100689.97;5090918;28;20054;-88
2021/07/10 08:45:52;;;;;;;4.30;3.28;;;;;;;29.50;nan;100680.44;5074049;28;20052;-88
2021/07/10 08:48:17;;;;;;;4.32;3.33;;;;;;;29.75;nan;100591.59;5059988;28;20036;-88
2021/07/10 08:50:43;;;;;;;4.18;3.20;;;;;;;30.05;nan;100596.88;5053422;28;20496;-88
2021/07/10 08:53:09;;;;;;;6.10;4.07;;;;;;;30.33;nan;100561.84;5069556;28;20036;-88
2021/07/10 08:55:36;;;;;;;4.03;3.03;;;;;;;30.07;nan;100566.63;5068799;28;20075;-89
2021/07/10 08:58:02;;;;;;;3.47;2.20;;;;;;;30.17;nan;100625.75;5070482;28;20132;-88
2021/07/10 09:00:41;;;;;;;3.70;2.15;;;;;;;31.21;nan;100622.88;5070445;28;20033;-88
2021/07/10 09:03:08;;;;;;;3.05;2.35;;;;;;;31.81;nan;100670.97;5070028;28;20028;-88
2021/07/10 09:05:34;;;;;;;3.22;2.70;;;;;;;32.25;nan;100678.94;5052688;28;20575;-88
2021/07/10 09:08:22;;;;;;;2.75;2.25;;;;;;;32.47;nan;100681.09;5070103;28;20065;-88
2021/07/10 09:11:14;;;;;;;2.90;2.28;;;;;;;31.80;nan;100674.78;5053619;28;20033;-88
2021/07/10 09:13:48;;;;;;;2.58;1.90;;;;;;;31.97;nan;100672.44;5062637;28;20029;-88
2021/07/10 09:16:16;;;;;;;2.13;1.60;;;;;;;31.57;nan;100676.41;5073012;28;20024;-87
2021/07/10 09:18:54;;;;;;;2.60;1.60;;;;;;;31.30;nan;100669.53;5090117;28;20025;-88
2021/07/10 09:21:40;;;;;;;4.05;2.17;;;;;;;31.21;nan;100665.78;5074306;28;20025;-88
2021/07/10 09:24:18;;;;;;;3.45;1.70;;;;;;;30.71;nan;100663.13;5090225;28;20108;-89
2021/07/10 09:26:46;;;;;;;2.85;1.88;;;;;;;30.52;nan;100665.69;5091417;28;20033;-89
2021/07/10 09:29:18;;;;;;;2.65;1.70;;;;;;;30.12;nan;100650.31;5090265;28;20040;-88
2021/07/10 09:31:47;;;;;;;1.88;1.60;;;;;;;29.45;nan;100646.94;5072600;28;20036;-88
2021/07/10 09:34:21;;;;;;;2.75;2.10;;;;;;;29.97;nan;100643.03;5071561;28;20060;-88
2021/07/10 09:36:55;;;;;;;2.58;1.70;;;;;;;29.75;nan;100640.66;5054073;28;20112;-88
2021/07/10 09:39:22;;;;;;;2.20;1.75;;;;;;;29.45;nan;100636.06;5069563;28;20029;-87
2021/07/10 09:41:48;;;;;;;2.70;1.73;;;;;;;29.38;nan;100645.31;5054533;28;20025;-89
2021/07/10 09:44:16;;;;;;;2.38;1.90;;;;;;;28.95;nan;100641.22;5051498;28;20392;-89
2021/07/10 09:46:42;;;;;;;2.88;1.92;;;;;;;28.45;nan;100640.03;5051887;28;20064;-88
2021/07/10 09:49:25;;;;;;;2.22;1.88;;;;;;;28.45;nan;100629.97;5049991;28;20512;-88
2021/07/10 09:52:06;;;;;;;2.17;1.73;;;;;;;28.34;nan;100639.19;5048257;28;20040;-88
2021/07/10 09:54:38;;;;;;;2.28;1.88;;;;;;;28.57;nan;100633.28;5042534;28;20058;-88
2021/07/10 09:57:13;;;;;;;2.50;1.90;;;;;;;28.64;nan;100637.66;5052726;28;20388;-88
2021/07/10 09:59:42;;;;;;;2.60;2.20;;;;;;;28.66;nan;100630.84;5051003;28;20485;-88
2021/07/10 10:02:14;;;;;;;2.55;2.35;;;;;;;28.70;nan;100623.81;5053042;28;20045;-88
2021/07/10 10:04:39;;;;;;;2.70;2.00;;;;;;;27.81;nan;100627.53;5070801;28;20041;-87
2021/07/10 10:07:20;;;;;;;2.63;2.03;;;;;;;27.68;nan;100626.13;5058527;28;20536;-88
2021/07/10 10:09:53;;;;;;;2.70;2.38;;;;;;;27.67;nan;100624.47;5050119;28;20036;-88
2021/07/10 10:12:18;;;;;;;2.95;2.30;;;;;;;27.48;nan;100622.19;5040573;28;20128;-88
2021/07/10 10:14:50;;;;;;;3.50;2.70;;;;;;;27.41;nan;100615.34;5032172;28;20142;-88
2021/07/10 10:17:18;;;;;;;2.90;2.47;;;;;;;27.41;nan;100624.31;5048755;28;20025;-88
2021/07/10 10:19:43;;;;;;;3.78;2.63;;;;;;;27.47;nan;100617.03;5038367;28;20048;-88
2021/07/10 10:22:10;;;;;;;3.00;2.65;;;;;;;27.33;nan;100620.19;5052692;28;20037;-87
2021/07/10 10:24:38;;;;;;;2.95;2.28;;;;;;;27.19;nan;100612.72;5044452;28;20045;-88
2021/07/10 10:27:05;;;;;;;3.83;2.55;;;;;;;26.84;nan;100620.31;5043228;28;20037;-88
2021/07/10 10:29:32;;;;;;;3.00;2.45;;;;;;;26.84;nan;100612.19;5046341;28;20231;-87
2021/07/10 10:31:58;;;;;;;3.10;2.72;;;;;;;26.96;nan;100606.59;5039607;28;20049;-88
2021/07/10 10:34:24;;;;;;;3.53;2.60;;;;;;;27.45;nan;100600.97;5036839;28;20021;-88
2021/07/10 10:36:53;;;;;;;3.10;2.80;;;;;;;27.67;nan;100598.13;5039690;28;20037;-88
2021/07/10 10:39:22;;;;;;;3.20;2.67;;;;;;;27.57;nan;100592.63;5050370;28;20041;-87
2021/07/10 10:41:53;;;;;;;3.53;2.53;;;;;;;27.00;nan;100593.31;5056263;28;20037;-88
2021/07/10 10:44:20;;;;;;;3.03;2.35;;;;;;;26.93;nan;100592.69;5046865;28;20037;-87
2021/07/10 10:46:54;;;;;;;2.78;2.30;;;;;;;26.73;nan;100583.31;5049861;28;20039;-87
2021/07/10 10:49:33;;;;;;;2.63;2.10;;;;;;;26.37;nan;100582.94;5062090;28;20029;-87
2021/07/10 10:52:29;;;;;;;2.83;2.50;;;;;;;26.54;nan;100582.06;5049929;28;20037;-87
2021/07/10 10:54:59;;;;;;;4.03;2.13;;;;;;;26.17;nan;100574.59;5050526;28;20044;-87
2021/07/10 10:57:43;;;;;;;3.67;2.30;;;;;;;26.25;nan;100566.03;5051358;28;20079;-88
2021/07/10 11:00:13;;;;;;;3.17;2.20;;;;;;;26.08;nan;100563.41;5050524;28;20662;-89
2021/07/10 11:02:49;;;;;;;3.35;2.45;;;;;;;26.26;nan;100568.47;5050183;28;20082;-87
2021/07/10 11:05:35;;;;;;;4.03;2.40;;;;;;;26.21;nan;100560.28;5050799;28;20033;-88
2021/07/10 11:08:21;;;;;;;2.72;2.30;;;;;;;26.10;nan;100560.41;5049915;28;20033;-88
2021/07/10 11:10:53;;;;;;;3.05;2.30;;;;;;;26.26;nan;100554.09;5050164;28;20403;-87
2021/07/10 11:13:44;;;;;;;3.22;2.22;;;;;;;26.37;nan;100555.84;5031129;28;20037;-87
2021/07/10 11:16:15;;;;;;;2.35;1.95;;;;;;;26.49;nan;100555.69;5061028;28;20063;-86
2021/07/10 11:18:56;;;;;;;3.55;2.22;;;;;;;26.61;nan;100553.66;5049911;28;20459;-88
2021/07/10 11:21:41;;;;;;;2.63;2.00;;;;;;;26.74;nan;100549.69;5040376;28;20377;-87
2021/07/10 11:24:16;;;;;;;2.72;2.28;;;;;;;26.79;nan;100549.75;5087175;28;20037;-87
2021/07/10 11:27:01;;;;;;;2.13;1.92;;;;;;;27.02;nan;100542.31;5076924;28;20116;-87
2021/07/10 11:29:34;;;;;;;2.72;2.20;;;;;;;27.36;nan;100542.81;5044125;28;20044;-87
2021/07/10 11:32:12;;;;;;;2.85;2.20;;;;;;;27.24;nan;100539.47;5051731;28;20511;-89
2021/07/10 11:34:48;;;;;;;2.80;2.30;;;;;;;26.63;nan;100527.09;5046296;28;20033;-87
2021/07/10 11:37:15;;;;;;;2.67;2.00;;;;;;;26.58;nan;100528.94;5042578;28;20045;-87
2021/07/10 11:39:42;;;;;;;2.50;2.17;;;;;;;26.88;nan;100525.66;5051350;28;20072;-87